Time;durP1;ratioP1;P1;durP2;ratioP2;P2;SDS_P1;SDS_P2;PMS_P1;PMS_P2;Temp;Humidity;BMP_temperature;BMP_pressure;BME280_temperature;BME280_humidity;BME280_pressure;Samples;Min_cycle;Max_cycle;Signal;HPM_P1;HPM_P2
2021/08/11 00:06:49;;;;;;;1.35;0.65;;;;;;;19.81;59.75;100813.63;1213335;23;21456;-82
2021/08/11 00:18:58;;;;;;;2.05;1.20;;;;;;;19.80;59.98;100801.34;1214178;23;21480;-82
2021/08/11 00:31:07;;;;;;;1.77;0.90;;;;;;;19.77;60.09;100801.53;1219515;22;22086;-82
2021/08/11 01:14:26;;;;;;;1.80;0.63;;;;;;;19.81;62.30;100775.69;1209905;23;22121;-82
2021/08/11 01:33:16;;;;;;;1.55;0.63;;;;;;;19.74;63.30;100761.97;1210626;23;21663;-82
2021/08/11 01:35:57;;;;;;;2.28;0.88;;;;;;;19.67;64.63;100757.97;1171750;23;20185;-82
2021/08/11 01:47:59;;;;;;;4.38;1.30;;;;;;;19.66;64.88;100753.59;1221551;22;21394;-83
2021/08/11 02:25:10;;;;;;;4.05;1.30;;;;;;;19.52;65.87;100709.38;1216916;22;21436;-83
2021/08/11 02:34:18;;;;;;;3.50;1.25;;;;;;;19.50;67.08;100697.16;1138935;23;20198;-83
2021/08/11 02:37:14;;;;;;;2.42;1.00;;;;;;;19.51;66.03;100693.56;1198051;23;22263;-82
2021/08/11 02:43:27;;;;;;;4.28;1.80;;;;;;;19.50;66.31;100687.41;3741486;22;20989;-83
2021/08/11 03:07:54;;;;;;;2.92;1.15;;;;;;;19.52;66.66;100679.41;1218503;22;21434;-83
2021/08/11 03:10:46;;;;;;;2.75;1.13;;;;;;;19.53;66.72;100675.81;1211477;23;21404;-83
2021/08/11 03:16:40;;;;;;;2.83;1.02;;;;;;;19.55;66.95;100668.59;1218924;22;21482;-82
2021/08/11 03:28:35;;;;;;;2.58;1.08;;;;;;;19.58;66.84;100645.44;1218241;22;22018;-83
2021/08/11 03:31:30;;;;;;;1.55;0.73;;;;;;;19.60;66.97;100640.06;1212185;22;21987;-82
2021/08/11 03:34:29;;;;;;;1.85;0.88;;;;;;;19.60;67.38;100640.06;1132852;23;20179;-83
2021/08/11 03:40:32;;;;;;;1.85;0.80;;;;;;;19.64;66.93;100646.88;3672444;22;20988;-83
2021/08/11 03:52:26;;;;;;;1.75;0.77;;;;;;;19.65;66.95;100622.09;1218425;22;21516;-81
2021/08/11 04:13:46;;;;;;;3.65;1.10;;;;;;;19.56;67.25;100619.97;1217476;22;21479;-83
2021/08/11 04:25:54;;;;;;;2.28;0.93;;;;;;;19.44;67.22;100603.88;1213862;22;21459;-83
2021/08/11 04:28:48;;;;;;;3.10;1.00;;;;;;;19.42;67.58;100600.50;1211253;22;21916;-83
2021/08/11 04:34:40;;;;;;;3.90;1.38;;;;;;;19.38;67.63;100583.09;1218910;22;21528;-82
2021/08/11 04:43:28;;;;;;;3.33;1.35;;;;;;;19.32;67.87;100596.72;1212601;23;21457;-82
2021/08/11 05:07:54;;;;;;;3.08;1.05;;;;;;;19.15;68.33;100586.25;3707265;22;21383;-82
2021/08/11 05:20:08;;;;;;;4.75;1.67;;;;;;;19.11;69.05;100600.63;1216680;23;21491;-82
2021/08/11 05:32:17;;;;;;;2.90;0.90;;;;;;;19.08;69.29;100599.03;1217010;22;21394;-82
2021/08/11 05:35:15;;;;;;;2.03;0.90;;;;;;;19.07;70.06;100599.13;1139352;23;20186;-82
2021/08/11 06:02:17;;;;;;;2.45;0.70;;;;;;;19.26;68.83;100580.31;1215197;22;21395;-83
2021/08/11 06:23:51;;;;;;;1.90;0.77;;;;;;;19.55;67.91;100573.25;1215107;22;21492;-82
2021/08/11 06:36:04;;;;;;;2.35;0.98;;;;;;;19.66;67.60;100566.34;1184651;22;20240;-82
2021/08/11 06:41:57;;;;;;;3.63;1.00;;;;;;;19.73;67.55;100547.44;1218944;22;21443;-82
2021/08/11 06:47:51;;;;;;;1.45;0.60;;;;;;;19.78;67.33;100551.50;1203669;23;21554;-82
2021/08/11 07:15:16;;;;;;;;;;;;;;;19.89;67.37;100553.47;3566987;40;20081;-81
2021/08/11 07:17:56;;;;;;;1.25;0.60;;;;;;;19.88;67.96;100544.66;3544306;40;19949;-81
2021/08/11 07:32:44;;;;;;;2.00;0.60;;;;;;;20.15;67.17;100549.13;3686464;23;20805;-83
2021/08/11 07:44:54;;;;;;;1.90;0.70;;;;;;;20.33;66.64;100539.13;1205402;23;21546;-82
2021/08/11 07:57:03;;;;;;;1.65;0.63;;;;;;;20.39;66.41;100544.03;1211280;23;21496;-82
2021/08/11 08:24:03;;;;;;;3.08;0.50;;;;;;;20.33;68.65;100526.72;1208081;23;21585;-82
2021/08/11 08:48:30;;;;;;;2.95;0.40;;;;;;;20.42;68.39;100507.53;3642180;23;21276;-83
2021/08/11 09:00:39;;;;;;;4.53;1.00;;;;;;;20.51;67.79;100500.78;1208965;23;21450;-82
2021/08/11 09:03:31;;;;;;;2.03;0.63;;;;;;;20.54;67.61;100510.38;1208670;22;21488;-82
2021/08/11 09:09:12;;;;;;;1.58;0.60;;;;;;;20.61;67.76;100504.53;1217922;22;21480;-82
2021/08/11 09:12:23;;;;;;;2.95;0.90;;;;;;;20.66;67.72;100509.53;1205973;23;21540;-83
2021/08/11 09:21:17;;;;;;;2.55;0.90;;;;;;;20.81;67.76;100497.03;1214532;22;21435;-81
2021/08/11 09:30:04;;;;;;;1.65;0.80;;;;;;;20.99;67.18;100495.75;1218347;22;21524;-82
2021/08/11 09:48:04;;;;;;;4.45;1.70;;;;;;;21.45;66.62;100488.09;1217878;22;21793;-82
2021/08/11 09:56:51;;;;;;;3.58;1.40;;;;;;;21.72;66.17;100479.09;1217872;22;21491;-82
2021/08/11 09:59:59;;;;;;;3.72;1.50;;;;;;;21.81;66.06;100488.19;1218692;23;21583;-83
2021/08/11 10:05:54;;;;;;;6.53;1.90;;;;;;;21.93;64.97;100482.81;1212175;23;22279;-83
2021/08/11 10:27:13;;;;;;;2.45;1.00;;;;;;;22.09;63.95;100460.41;3777294;22;20037;-82
2021/08/11 10:39:31;;;;;;;2.17;1.13;;;;;;;22.53;64.90;100503.19;3662008;22;20910;-84
2021/08/11 10:54:18;;;;;;;2.75;1.00;;;;;;;22.92;65.54;100495.81;3573498;40;20076;-79
2021/08/11 10:56:54;;;;;;;1.38;0.30;;;;;;;23.10;63.80;100521.97;3549236;40;20452;-78
2021/08/11 10:59:26;;;;;;;0.55;0.20;;;;;;;22.97;63.42;100527.41;3558101;40;20069;-78
2021/08/11 11:01:57;;;;;;;0.50;0.30;;;;;;;22.70;65.03;100527.66;3568236;40;20385;-78
2021/08/11 11:04:41;;;;;;;0.57;0.25;;;;;;;22.60;64.06;100540.81;3559685;40;20057;-81
2021/08/11 11:07:11;;;;;;;0.10;0.10;;;;;;;22.40;65.30;100539.66;3561902;40;20065;-80
2021/08/11 11:09:41;;;;;;;0.75;0.40;;;;;;;22.19;66.08;100535.94;3562428;40;20095;-82
2021/08/11 11:12:17;;;;;;;0.20;0.15;;;;;;;22.14;65.28;100559.34;3580788;40;20132;-80
2021/08/11 11:14:51;;;;;;;1.88;0.10;;;;;;;21.98;67.01;100554.28;3546875;40;20061;-80
2021/08/11 11:17:30;;;;;;;0.35;0.10;;;;;;;21.86;66.78;100537.41;3563700;40;20463;-80
2021/08/11 11:20:03;;;;;;;0.65;0.20;;;;;;;21.83;67.05;100550.91;3552309;40;20071;-80
2021/08/11 11:22:41;;;;;;;0.15;0.10;;;;;;;21.78;66.89;100542.41;3577680;40;20061;-79
2021/08/11 11:25:10;;;;;;;0.95;0.13;;;;;;;21.71;67.96;100533.19;3558901;40;20828;-80
2021/08/11 11:27:45;;;;;;;0.10;0.10;;;;;;;21.76;67.19;100533.72;3568196;40;20052;-79
2021/08/11 11:30:14;;;;;;;0.25;0.17;;;;;;;21.79;67.13;100544.13;3565638;40;20343;-80
2021/08/11 11:32:41;;;;;;;0.17;0.10;;;;;;;21.79;67.28;100530.81;3570888;40;20049;-80
2021/08/11 11:35:24;;;;;;;0.45;0.28;;;;;;;21.96;66.65;100546.41;3565069;40;20526;-79
2021/08/11 11:38:14;;;;;;;0.60;0.20;;;;;;;22.05;66.03;100549.34;3569232;40;20061;-79
2021/08/11 11:40:54;;;;;;;0.47;0.20;;;;;;;22.10;65.32;100547.19;3568071;40;20804;-79
2021/08/11 11:43:23;;;;;;;0.10;0.10;;;;;;;22.07;64.42;100558.09;3567566;40;20049;-80
2021/08/11 11:45:51;;;;;;;0.30;0.20;;;;;;;21.86;63.25;100531.25;3558396;40;20072;-80
2021/08/11 11:48:23;;;;;;;0.65;0.30;;;;;;;22.02;63.23;100561.94;3562952;40;20427;-80
2021/08/11 11:51:08;;;;;;;0.40;0.20;;;;;;;22.00;64.79;100555.03;3564318;40;20053;-79
2021/08/11 11:53:37;;;;;;;0.32;0.20;;;;;;;21.88;66.40;100559.41;3551670;40;20082;-79
2021/08/11 11:56:14;;;;;;;0.20;0.20;;;;;;;21.87;66.08;100563.03;3569664;40;20058;-80
2021/08/11 11:58:48;;;;;;;0.47;0.30;;;;;;;21.79;68.06;100584.00;3554289;40;20660;-79
2021/08/11 12:01:17;;;;;;;0.20;0.20;;;;;;;21.69;70.31;100580.28;3561500;40;20330;-77
2021/08/11 12:04:11;;;;;;;1.23;0.20;;;;;;;21.62;68.08;100594.97;3561557;40;20053;-78
2021/08/11 12:06:41;;;;;;;0.95;0.30;;;;;;;21.43;73.18;100590.94;3562550;40;20065;-77
2021/08/11 12:09:08;;;;;;;0.77;0.32;;;;;;;21.28;74.91;100588.47;3551278;40;20048;-80
2021/08/11 12:11:37;;;;;;;2.65;0.57;;;;;;;21.08;75.49;100573.91;3724441;22;20064;-80
2021/08/11 12:30:16;;;;;;;1.83;0.55;;;;;;;20.86;72.77;100596.59;3776692;22;20079;-81
2021/08/11 12:33:09;;;;;;;0.90;0.60;;;;;;;20.84;72.55;100587.91;3820693;23;20839;-81
2021/08/11 12:38:39;;;;;;;1.33;0.50;;;;;;;20.77;72.85;100601.69;3642188;23;20034;-80
2021/08/11 12:41:22;;;;;;;1.75;0.70;;;;;;;20.68;72.99;100611.09;3551324;40;20321;-80
2021/08/11 12:50:14;;;;;;;0.80;0.40;;;;;;;20.32;75.87;100614.31;1214518;22;21397;-82
2021/08/11 12:59:02;;;;;;;3.28;0.75;;;;;;;20.39;76.54;100623.59;1212379;22;21453;-81
2021/08/11 13:05:17;;;;;;;0.73;0.50;;;;;;;20.77;76.73;100613.13;3734330;22;20045;-81
2021/08/11 13:10:53;;;;;;;1.73;0.75;;;;;;;21.23;77.31;100616.19;3612906;23;20127;-82
2021/08/11 13:13:27;;;;;;;1.95;0.50;;;;;;;21.54;76.72;100618.56;3590851;40;20052;-82
2021/08/11 13:16:13;;;;;;;1.42;0.60;;;;;;;21.93;76.44;100626.41;3561677;40;20061;-82
2021/08/11 13:18:43;;;;;;;0.80;0.50;;;;;;;22.23;77.71;100633.16;3537353;40;20061;-81
2021/08/11 13:21:12;;;;;;;1.30;0.68;;;;;;;22.54;75.55;100621.13;3553805;40;20045;-81
2021/08/11 13:23:41;;;;;;;2.83;0.88;;;;;;;22.75;72.77;100618.66;3570467;40;20090;-81
2021/08/11 13:26:08;;;;;;;3.20;0.80;;;;;;;22.89;73.23;100615.84;3573652;40;20069;-81
2021/08/11 13:28:41;;;;;;;1.85;0.77;;;;;;;23.10;70.73;100633.84;3547603;40;20038;-81
2021/08/11 13:31:15;;;;;;;3.17;1.00;;;;;;;23.12;71.50;100626.59;3563438;40;20045;-81
2021/08/11 13:33:47;;;;;;;0.90;0.40;;;;;;;23.15;73.22;100626.34;3549006;40;20574;-81
2021/08/11 13:36:15;;;;;;;2.38;0.75;;;;;;;23.16;70.75;100638.69;3554580;40;20100;-81
2021/08/11 13:38:42;;;;;;;2.20;0.80;;;;;;;23.18;70.29;100629.63;3537891;40;20029;-81
2021/08/11 13:41:18;;;;;;;2.75;0.82;;;;;;;23.27;69.76;100636.94;3510230;40;20048;-80
2021/08/11 13:43:44;;;;;;;3.53;1.10;;;;;;;23.20;65.60;100635.69;3572793;40;20052;-81
2021/08/11 13:46:16;;;;;;;2.42;1.00;;;;;;;23.23;70.98;100635.47;3575776;40;20057;-82
2021/08/11 13:48:43;;;;;;;2.10;0.93;;;;;;;22.95;65.07;100612.72;3579105;40;20036;-81
2021/08/11 13:51:16;;;;;;;3.88;0.90;;;;;;;22.88;71.12;100608.84;3547429;40;20023;-82
2021/08/11 13:53:43;;;;;;;1.05;0.63;;;;;;;22.74;71.28;100607.19;3555212;40;20753;-82
2021/08/11 13:56:12;;;;;;;2.72;1.20;;;;;;;22.78;69.77;100639.75;3552391;40;20132;-82
2021/08/11 13:58:39;;;;;;;2.28;0.80;;;;;;;22.66;72.12;100630.03;3549920;40;20038;-82
2021/08/11 14:01:07;;;;;;;5.38;1.20;;;;;;;22.71;70.68;100650.03;3563450;40;20062;-82
2021/08/11 14:03:34;;;;;;;2.53;0.98;;;;;;;22.61;70.15;100632.16;3567811;40;21561;-81
2021/08/11 14:06:01;;;;;;;3.45;1.30;;;;;;;22.66;72.89;100646.84;3544651;40;20026;-81
2021/08/11 14:08:28;;;;;;;3.10;1.13;;;;;;;22.69;69.29;100646.59;3558705;40;21203;-81
2021/08/11 14:10:55;;;;;;;5.07;1.35;;;;;;;22.52;69.52;100634.56;3545321;40;20054;-81
2021/08/11 14:13:23;;;;;;;3.57;1.10;;;;;;;22.68;72.06;100646.72;3558201;40;20525;-81
2021/08/11 14:15:52;;;;;;;5.15;1.30;;;;;;;22.62;69.70;100639.19;3580999;40;20275;-81
2021/08/11 14:18:22;;;;;;;2.42;1.10;;;;;;;22.61;71.96;100641.03;3569158;40;20049;-82
2021/08/11 14:20:48;;;;;;;4.53;1.60;;;;;;;22.49;70.55;100634.75;3576257;40;20793;-81
2021/08/11 14:23:17;;;;;;;3.63;1.27;;;;;;;22.55;72.29;100654.75;3595422;39;20936;-81
2021/08/11 14:25:46;;;;;;;6.38;1.50;;;;;;;22.46;69.92;100636.81;3575041;40;20033;-81
2021/08/11 14:28:13;;;;;;;4.05;1.23;;;;;;;22.49;64.63;100644.56;3571687;40;20802;-82
2021/08/11 14:30:40;;;;;;;4.38;1.38;;;;;;;22.52;71.93;100645.19;3570487;40;20029;-81
2021/08/11 14:33:13;;;;;;;3.58;1.23;;;;;;;22.67;69.87;100650.34;3558278;40;20073;-81
2021/08/11 14:35:40;;;;;;;4.85;1.38;;;;;;;22.70;68.41;100652.78;3560937;40;20070;-81
2021/08/11 14:38:07;;;;;;;3.03;0.73;;;;;;;22.71;71.88;100642.03;3528757;40;20090;-81
2021/08/11 14:40:35;;;;;;;2.42;1.00;;;;;;;22.84;73.07;100633.97;3507907;40;20035;-81
2021/08/11 14:43:03;;;;;;;2.72;0.90;;;;;;;22.97;68.21;100642.78;3537526;40;20066;-82
2021/08/11 14:45:40;;;;;;;2.20;0.77;;;;;;;23.15;72.01;100652.97;3528215;40;20112;-81
2021/08/11 14:48:08;;;;;;;3.08;1.08;;;;;;;23.21;70.07;100652.50;3551702;40;20082;-81
2021/08/11 14:50:39;;;;;;;4.05;1.30;;;;;;;23.37;68.98;100663.72;3544275;40;20878;-81
2021/08/11 14:53:13;;;;;;;2.92;1.30;;;;;;;23.53;67.40;100658.91;3481039;40;20131;-81
2021/08/11 14:55:43;;;;;;;3.78;1.20;;;;;;;23.76;67.41;100661.59;3513052;40;20110;-81
2021/08/11 14:58:17;;;;;;;3.33;1.15;;;;;;;23.98;67.99;100652.78;3515550;40;20051;-80
2021/08/11 15:00:45;;;;;;;4.18;1.17;;;;;;;24.30;66.40;100663.53;3557957;40;20045;-81
2021/08/11 15:03:13;;;;;;;4.63;1.13;;;;;;;24.70;60.25;100654.97;3560385;40;20057;-81
2021/08/11 15:05:44;;;;;;;6.15;1.40;;;;;;;25.15;65.76;100649.44;3565178;40;20077;-80
2021/08/11 15:08:14;;;;;;;2.78;1.00;;;;;;;25.53;58.81;100655.03;3554895;40;20393;-80
2021/08/11 15:10:42;;;;;;;6.13;1.63;;;;;;;25.86;52.23;100655.78;3560165;40;20048;-81
2021/08/11 15:13:09;;;;;;;2.42;1.10;;;;;;;25.98;50.98;100654.69;3554530;40;20509;-80
2021/08/11 15:15:36;;;;;;;3.60;1.40;;;;;;;26.14;59.33;100655.03;3564265;40;20105;-80
2021/08/11 15:18:10;;;;;;;3.13;1.15;;;;;;;26.42;57.91;100657.97;3563503;40;20136;-80
2021/08/11 15:20:37;;;;;;;2.95;1.27;;;;;;;26.55;58.62;100658.53;3566880;40;20076;-79
2021/08/11 15:23:04;;;;;;;;;;;;;;;27.05;63.43;100661.09;3562666;40;20134;-79
2021/08/11 15:25:31;;;;;;;3.88;1.13;;;;;;;27.20;55.56;100663.38;3563389;40;19955;-79
2021/08/11 15:27:58;;;;;;;4.60;1.17;;;;;;;27.38;52.72;100662.50;3561214;40;20057;-79
2021/08/11 15:30:25;;;;;;;3.85;1.02;;;;;;;27.65;54.64;100659.03;3568068;40;20084;-80
2021/08/11 15:32:52;;;;;;;3.08;0.98;;;;;;;27.97;48.25;100657.81;3552410;40;20489;-80
2021/08/11 15:35:19;;;;;;;4.15;1.20;;;;;;;28.29;47.00;100670.81;3570861;40;20127;-80
2021/08/11 15:37:46;;;;;;;2.08;1.20;;;;;;;28.53;49.84;100670.22;3567678;40;20583;-79
2021/08/11 15:40:15;;;;;;;5.80;1.60;;;;;;;28.81;47.29;100670.19;3567775;40;20090;-79
2021/08/11 15:42:42;;;;;;;4.53;1.13;;;;;;;28.95;47.24;100664.31;3561086;40;20068;-79
2021/08/11 15:45:09;;;;;;;3.92;1.13;;;;;;;29.15;38.97;100671.22;3569791;40;20357;-80
2021/08/11 15:47:37;;;;;;;4.80;1.08;;;;;;;29.25;45.80;100659.47;3561041;40;20073;-79
2021/08/11 15:50:07;;;;;;;2.95;1.00;;;;;;;29.51;45.06;100663.06;3568967;40;20060;-79
2021/08/11 15:52:35;;;;;;;1.75;0.70;;;;;;;29.56;41.07;100658.06;3571210;40;20433;-80
2021/08/11 15:55:04;;;;;;;3.55;1.00;;;;;;;29.75;42.49;100661.53;3560396;40;20571;-80
2021/08/11 15:57:31;;;;;;;3.40;1.08;;;;;;;29.79;40.70;100652.13;3554034;40;20055;-79
2021/08/11 15:59:58;;;;;;;5.25;1.15;;;;;;;29.84;35.81;100661.41;3556692;40;20068;-80
2021/08/11 16:02:26;;;;;;;2.30;0.90;;;;;;;29.94;39.19;100661.28;3561536;40;20048;-79
2021/08/11 16:04:53;;;;;;;3.38;1.13;;;;;;;30.00;37.05;100644.47;3571420;40;20056;-79
2021/08/11 16:07:22;;;;;;;2.47;0.60;;;;;;;30.13;34.82;100661.06;3547163;40;20106;-79
2021/08/11 16:09:50;;;;;;;2.13;0.70;;;;;;;30.24;37.81;100666.16;3567189;40;20064;-79
2021/08/11 16:12:17;;;;;;;3.50;0.88;;;;;;;30.34;42.35;100673.25;3560451;40;20098;-79
2021/08/11 16:14:44;;;;;;;2.03;0.63;;;;;;;30.46;34.87;100671.94;3559994;40;20159;-79
2021/08/11 16:17:11;;;;;;;2.05;0.68;;;;;;;30.53;36.58;100659.50;3567694;40;20754;-79
2021/08/11 16:19:38;;;;;;;;;;;;;;;30.96;46.00;100673.72;3573624;40;20497;-79
2021/08/11 16:22:06;;;;;;;1.98;0.73;;;;;;;30.84;38.02;100669.69;3557848;40;19947;-80
2021/08/11 16:24:33;;;;;;;2.65;0.70;;;;;;;30.82;36.71;100661.78;3555888;40;20060;-79
2021/08/11 16:27:02;;;;;;;4.30;0.60;;;;;;;30.88;34.92;100671.03;3568212;40;20322;-80
2021/08/11 16:29:28;;;;;;;2.10;0.80;;;;;;;30.80;33.69;100681.81;3560581;40;20057;-79
2021/08/11 16:31:59;;;;;;;2.65;0.73;;;;;;;30.78;35.51;100689.22;3561250;40;20513;-79
2021/08/11 16:34:26;;;;;;;2.22;0.70;;;;;;;30.73;35.62;100677.09;3570994;40;20045;-80
2021/08/11 16:36:54;;;;;;;2.22;0.75;;;;;;;30.67;36.74;100685.81;3570860;40;20399;-79
2021/08/11 16:39:21;;;;;;;2.58;0.77;;;;;;;30.65;31.92;100690.50;3567896;40;20100;-79
2021/08/11 16:41:49;;;;;;;2.72;0.70;;;;;;;30.66;37.10;100686.81;3564123;40;20495;-79
2021/08/11 16:44:15;;;;;;;2.60;0.68;;;;;;;30.72;35.11;100683.50;3569687;40;20170;-79
2021/08/11 16:46:42;;;;;;;2.42;0.73;;;;;;;30.84;33.84;100691.25;3570027;40;20151;-80
2021/08/11 16:49:09;;;;;;;2.00;0.57;;;;;;;31.03;33.92;100696.34;3566938;40;20048;-79
2021/08/11 16:51:36;;;;;;;4.43;0.68;;;;;;;31.19;36.64;100707.13;3561310;40;20057;-79
2021/08/11 16:54:03;;;;;;;2.83;0.60;;;;;;;31.31;34.45;100694.16;3567034;40;20060;-79
2021/08/11 16:56:30;;;;;;;2.10;0.60;;;;;;;31.49;30.45;100702.09;3565734;40;20109;-79
2021/08/11 16:58:57;;;;;;;3.50;0.70;;;;;;;31.57;32.49;100715.53;3564799;40;20435;-79
2021/08/11 17:01:24;;;;;;;2.15;0.65;;;;;;;31.62;31.35;100707.78;3566487;40;20668;-79
2021/08/11 17:03:51;;;;;;;1.48;0.47;;;;;;;31.62;30.17;100713.19;3555306;40;20053;-80
2021/08/11 17:06:18;;;;;;;1.33;0.40;;;;;;;31.62;30.77;100709.63;3565445;40;21157;-79
2021/08/11 17:08:52;;;;;;;2.67;0.73;;;;;;;31.73;36.01;100720.94;3570399;40;20080;-79
2021/08/11 17:11:18;;;;;;;1.27;0.50;;;;;;;31.61;28.01;100716.91;3566461;40;20582;-79
2021/08/11 17:13:45;;;;;;;2.40;0.55;;;;;;;31.63;32.82;100703.22;3573063;40;20107;-79
2021/08/11 17:16:12;;;;;;;;;;;;;;;31.90;38.43;100720.94;3561402;40;20064;-79
2021/08/11 17:18:39;;;;;;;2.00;0.50;;;;;;;31.64;28.33;100694.97;3568790;40;19944;-79
2021/08/11 17:21:06;;;;;;;1.67;0.52;;;;;;;31.64;32.57;100694.97;3560465;40;20784;-79
2021/08/11 17:23:32;;;;;;;1.25;0.47;;;;;;;31.67;28.51;100707.25;3566972;40;20064;-80
2021/08/11 17:25:59;;;;;;;1.95;0.47;;;;;;;31.61;34.21;100714.19;3570555;40;20873;-79
2021/08/11 17:28:27;;;;;;;2.20;0.40;;;;;;;31.64;31.50;100716.56;3567868;40;20442;-80
2021/08/11 17:30:55;;;;;;;1.45;0.40;;;;;;;31.64;30.33;100713.88;3566193;40;20100;-80
2021/08/11 17:33:23;;;;;;;1.67;0.45;;;;;;;31.60;34.60;100714.38;3553042;40;20060;-80
2021/08/11 17:35:50;;;;;;;1.63;0.50;;;;;;;31.55;32.20;100709.50;3561403;40;20064;-79
2021/08/11 17:38:17;;;;;;;1.60;0.68;;;;;;;31.54;32.36;100724.00;3560500;40;20354;-75
2021/08/11 17:40:44;;;;;;;1.52;0.50;;;;;;;31.49;28.81;100724.50;3561922;40;20130;-75
2021/08/11 17:43:10;;;;;;;2.08;0.60;;;;;;;31.41;31.34;100720.97;3564287;40;20045;-76
2021/08/11 17:45:37;;;;;;;;;;;;;;;31.49;36.03;100729.06;3565387;40;20159;-75
2021/08/11 17:48:04;;;;;;;2.55;0.57;;;;;;;31.18;27.15;100721.63;3564003;40;19945;-75
2021/08/11 17:50:34;;;;;;;2.40;0.60;;;;;;;30.99;26.89;100738.13;3564077;40;20167;-76
2021/08/11 17:53:03;;;;;;;2.50;0.60;;;;;;;30.72;29.35;100732.03;3561357;40;20377;-75
2021/08/11 17:55:30;;;;;;;2.35;0.60;;;;;;;30.45;29.49;100735.75;3550323;40;20052;-76
2021/08/11 17:57:57;;;;;;;;;;;;;;;30.32;35.18;100738.09;3561330;40;20815;-75
2021/08/11 18:00:23;;;;;;;;;;;;;;;30.11;36.09;100748.38;3563055;40;20392;-75
2021/08/11 18:02:50;;;;;;;0.88;0.20;;;;;;;29.75;34.55;100744.97;3565201;40;19941;-75
2021/08/11 18:05:18;;;;;;;2.08;0.32;;;;;;;29.54;33.67;100751.56;3565530;40;20053;-76
2021/08/11 18:07:44;;;;;;;1.13;0.43;;;;;;;29.34;30.25;100750.00;3551190;40;20056;-76
2021/08/11 18:10:11;;;;;;;1.02;0.32;;;;;;;29.16;31.48;100756.25;3556402;40;20065;-76
2021/08/11 18:12:38;;;;;;;1.02;0.30;;;;;;;28.97;33.03;100764.47;3566195;40;20049;-76
2021/08/11 18:15:05;;;;;;;;;;;;;;;28.97;36.58;100769.00;3561855;40;20066;-75
2021/08/11 18:17:32;;;;;;;2.70;0.52;;;;;;;28.71;33.65;100767.00;3574297;40;20360;-76
2021/08/11 18:20:00;;;;;;;;;;;;;;;28.69;36.79;100769.88;3576057;40;20138;-76
2021/08/11 18:22:27;;;;;;;1.50;0.40;;;;;;;28.43;33.42;100767.00;3576824;40;19941;-75
2021/08/11 18:24:54;;;;;;;1.83;0.55;;;;;;;28.26;31.86;100774.97;3575256;40;20060;-75
2021/08/11 18:27:21;;;;;;;2.35;0.50;;;;;;;28.10;34.08;100771.06;3561419;40;20082;-75
2021/08/11 18:29:49;;;;;;;;;;;;;;;28.06;37.15;100782.25;3577030;40;20474;-75
2021/08/11 18:32:16;;;;;;;0.73;0.30;;;;;;;27.84;34.52;100775.41;3571651;40;19945;-75
2021/08/11 18:34:43;;;;;;;3.03;0.40;;;;;;;27.69;36.38;100777.66;3576111;40;20387;-75
2021/08/11 18:37:11;;;;;;;0.90;0.40;;;;;;;27.58;35.69;100781.34;3575126;40;20063;-75
2021/08/11 18:39:39;;;;;;;2.42;0.60;;;;;;;27.46;32.58;100771.72;3577564;40;20072;-75
2021/08/11 18:42:07;;;;;;;1.33;0.43;;;;;;;27.39;36.79;100778.66;3577793;40;20590;-75
2021/08/11 18:44:34;;;;;;;1.65;0.40;;;;;;;27.28;35.47;100784.19;3577958;40;20131;-76
2021/08/11 18:47:03;;;;;;;2.28;0.80;;;;;;;27.20;36.62;100782.19;3571818;40;20059;-77
2021/08/11 18:49:31;;;;;;;1.23;0.38;;;;;;;27.10;37.25;100790.22;3560689;40;20072;-76
2021/08/11 18:51:58;;;;;;;1.08;0.40;;;;;;;26.92;34.36;100773.09;3578204;40;20133;-75
2021/08/11 18:54:25;;;;;;;0.85;0.50;;;;;;;26.88;37.03;100785.09;3575817;40;20482;-76
2021/08/11 18:56:52;;;;;;;0.90;0.30;;;;;;;26.78;38.30;100786.91;3573484;40;20137;-76
2021/08/11 18:59:23;;;;;;;0.70;0.30;;;;;;;26.69;36.95;100787.72;3578428;40;20056;-76
2021/08/11 19:01:51;;;;;;;0.95;0.40;;;;;;;26.52;38.18;100787.38;3562934;40;20118;-76
2021/08/11 19:04:18;;;;;;;0.90;0.40;;;;;;;26.40;38.75;100788.41;3576466;40;20400;-75
2021/08/11 19:06:45;;;;;;;0.32;0.20;;;;;;;26.27;38.45;100787.81;3562887;40;20322;-75
2021/08/11 19:09:11;;;;;;;3.85;0.65;;;;;;;26.12;37.05;100795.34;3577908;40;20628;-75
2021/08/11 19:11:38;;;;;;;1.98;0.45;;;;;;;25.91;38.89;100790.03;3577476;40;20911;-75
2021/08/11 19:14:05;;;;;;;;;;;;;;;25.85;39.73;100803.91;3567159;40;20431;-76
2021/08/11 19:16:33;;;;;;;1.27;0.57;;;;;;;25.63;38.38;100804.84;3574989;40;20030;-75
2021/08/11 19:19:01;;;;;;;1.30;0.30;;;;;;;25.46;38.89;100803.59;3574391;40;20122;-75
2021/08/11 19:21:27;;;;;;;2.80;0.60;;;;;;;25.29;38.88;100809.47;3563465;40;20081;-75
2021/08/11 19:23:55;;;;;;;0.52;0.20;;;;;;;25.09;38.67;100816.47;3578741;39;20489;-75
2021/08/11 19:26:22;;;;;;;2.30;0.40;;;;;;;24.91;39.16;100817.94;3577683;39;20048;-75
2021/08/11 19:28:49;;;;;;;1.92;0.40;;;;;;;24.73;39.59;100825.59;3564346;40;20060;-76
2021/08/11 19:31:16;;;;;;;1.00;0.40;;;;;;;24.54;40.63;100827.09;3577929;40;20170;-75
2021/08/11 19:33:43;;;;;;;0.52;0.30;;;;;;;24.39;40.18;100833.63;3574649;40;20071;-75
2021/08/11 19:36:11;;;;;;;1.77;0.40;;;;;;;24.23;40.59;100838.41;3577710;40;20058;-75
2021/08/11 19:38:43;;;;;;;1.95;0.35;;;;;;;24.05;40.88;100830.88;3559817;40;20076;-79
2021/08/11 19:41:10;;;;;;;1.38;0.25;;;;;;;23.85;41.43;100823.56;3585723;40;20106;-80
2021/08/11 19:43:40;;;;;;;8.43;1.27;;;;;;;23.72;41.43;100836.13;3588664;40;20893;-79
2021/08/11 19:46:07;;;;;;;2.97;0.55;;;;;;;23.54;40.91;100836.53;3586361;40;20056;-79
2021/08/11 19:48:36;;;;;;;1.75;0.50;;;;;;;23.41;41.87;100851.72;3588817;40;20044;-79
2021/08/11 19:51:07;;;;;;;2.13;0.30;;;;;;;23.26;42.47;100847.50;3578682;40;20088;-79
2021/08/11 19:53:37;;;;;;;0.52;0.30;;;;;;;23.09;42.80;100855.91;3578631;40;20116;-79
2021/08/11 19:56:07;;;;;;;2.38;0.50;;;;;;;22.89;42.98;100850.19;3589715;40;20171;-80
2021/08/11 19:58:35;;;;;;;2.63;0.90;;;;;;;22.72;43.79;100847.88;3584938;40;20084;-79
2021/08/11 20:01:09;;;;;;;0.77;0.28;;;;;;;22.62;43.70;100858.31;3582627;40;20052;-80
2021/08/11 20:03:36;;;;;;;2.22;0.30;;;;;;;22.47;44.93;100854.91;3584843;40;20056;-79
2021/08/11 20:06:05;;;;;;;1.17;0.30;;;;;;;22.36;44.06;100857.47;3578863;40;20053;-80
2021/08/11 20:08:37;;;;;;;1.80;0.32;;;;;;;22.23;43.22;100861.94;3579493;40;20119;-80
2021/08/11 20:11:04;;;;;;;0.60;0.25;;;;;;;22.11;44.69;100865.44;3591579;40;20048;-79
2021/08/11 20:13:31;;;;;;;1.27;0.40;;;;;;;22.01;44.75;100874.00;3591072;40;20142;-79
2021/08/11 20:15:58;;;;;;;1.40;0.40;;;;;;;21.81;45.06;100866.53;3582571;40;20044;-79
2021/08/11 20:18:28;;;;;;;0.82;0.50;;;;;;;21.79;45.87;100879.06;3570000;40;20966;-79
2021/08/11 20:20:54;;;;;;;0.30;0.20;;;;;;;21.65;45.84;100884.47;3586804;40;20725;-79
2021/08/11 20:23:22;;;;;;;0.85;0.40;;;;;;;21.41;45.41;100868.31;3589871;40;20048;-79
2021/08/11 20:25:52;;;;;;;1.40;0.43;;;;;;;21.43;45.85;100893.81;3584051;40;20840;-79
2021/08/11 20:28:47;;;;;;;1.92;0.60;;;;;;;21.33;45.31;100891.84;3585085;40;20451;-79
2021/08/11 20:31:14;;;;;;;0.30;0.30;;;;;;;21.17;47.86;100892.81;3567694;40;20057;-79
2021/08/11 20:33:44;;;;;;;1.55;0.50;;;;;;;21.10;46.81;100901.28;3589315;40;20067;-79
2021/08/11 20:36:11;;;;;;;0.90;0.30;;;;;;;20.90;48.10;100889.25;3574609;40;20062;-79
2021/08/11 20:38:41;;;;;;;1.48;0.30;;;;;;;20.89;48.19;100904.34;3587595;40;20102;-79
2021/08/11 20:41:08;;;;;;;1.15;0.45;;;;;;;20.82;50.08;100908.31;3578246;40;20568;-79
2021/08/11 20:43:37;;;;;;;0.47;0.30;;;;;;;20.75;49.22;100912.31;3588805;40;20067;-79
2021/08/11 20:46:04;;;;;;;0.55;0.28;;;;;;;20.68;50.12;100910.94;3577004;40;21328;-79
2021/08/11 20:48:32;;;;;;;1.60;0.35;;;;;;;20.57;49.65;100902.81;3592325;39;20118;-79
2021/08/11 20:51:00;;;;;;;0.60;0.45;;;;;;;20.56;49.78;100917.03;3591497;39;20048;-80
2021/08/11 20:53:33;;;;;;;0.55;0.40;;;;;;;20.46;49.68;100916.69;3586121;40;20056;-78
2021/08/11 20:56:01;;;;;;;2.05;0.40;;;;;;;20.38;50.97;100919.81;3577891;40;20060;-80
2021/08/11 20:58:32;;;;;;;1.48;0.30;;;;;;;20.32;50.69;100919.31;3577592;40;20060;-80